sensor_id;sensor_type;location;lat;lon;timestamp;temperature;humidity
23289;DHT22;11813;50.834;4.280;2022-08-02T00:01:23;22.10;99.90
23289;DHT22;11813;50.834;4.280;2022-08-02T00:03:48;22.00;99.90
23289;DHT22;11813;50.834;4.280;2022-08-02T00:06:14;22.00;99.90
23289;DHT22;11813;50.834;4.280;2022-08-02T00:08:39;22.00;99.90
23289;DHT22;11813;50.834;4.280;2022-08-02T00:11:05;22.00;99.90
23289;DHT22;11813;50.834;4.280;2022-08-02T00:13:31;22.00;99.90
23289;DHT22;11813;50.834;4.280;2022-08-02T00:15:56;22.00;99.90
23289;DHT22;11813;50.834;4.280;2022-08-02T00:18:22;21.90;99.90
23289;DHT22;11813;50.834;4.280;2022-08-02T00:20:48;21.90;99.90
23289;DHT22;11813;50.834;4.280;2022-08-02T00:23:13;21.90;99.90
23289;DHT22;11813;50.834;4.280;2022-08-02T00:25:39;21.90;99.90
23289;DHT22;11813;50.834;4.280;2022-08-02T00:28:05;21.80;99.90
23289;DHT22;11813;50.834;4.280;2022-08-02T00:30:31;21.80;99.90
23289;DHT22;11813;50.834;4.280;2022-08-02T00:32:56;21.80;99.90
23289;DHT22;11813;50.834;4.280;2022-08-02T00:35:22;21.80;99.90
23289;DHT22;11813;50.834;4.280;2022-08-02T00:37:47;21.80;99.90
23289;DHT22;11813;50.834;4.280;2022-08-02T00:40:13;21.70;99.90
23289;DHT22;11813;50.834;4.280;2022-08-02T00:42:39;21.70;99.90
23289;DHT22;11813;50.834;4.280;2022-08-02T00:45:06;21.60;99.90
23289;DHT22;11813;50.834;4.280;2022-08-02T00:47:32;21.60;99.90
23289;DHT22;11813;50.834;4.280;2022-08-02T00:49:57;21.60;99.90
23289;DHT22;11813;50.834;4.280;2022-08-02T00:52:23;21.60;99.90
23289;DHT22;11813;50.834;4.280;2022-08-02T00:54:49;21.60;99.90
23289;DHT22;11813;50.834;4.280;2022-08-02T00:57:15;21.60;99.90
23289;DHT22;11813;50.834;4.280;2022-08-02T00:59:40;21.60;99.90
23289;DHT22;11813;50.834;4.280;2022-08-02T01:02:07;21.50;99.90
23289;DHT22;11813;50.834;4.280;2022-08-02T01:04:33;21.50;99.90
23289;DHT22;11813;50.834;4.280;2022-08-02T01:07:00;21.40;99.90
23289;DHT22;11813;50.834;4.280;2022-08-02T01:09:26;21.40;99.90
23289;DHT22;11813;50.834;4.280;2022-08-02T01:11:52;21.50;99.90
23289;DHT22;11813;50.834;4.280;2022-08-02T01:14:18;21.50;99.90
23289;DHT22;11813;50.834;4.280;2022-08-02T01:17:07;21.50;99.90
23289;DHT22;11813;50.834;4.280;2022-08-02T01:19:42;21.40;99.90
23289;DHT22;11813;50.834;4.280;2022-08-02T01:30:26;21.30;99.90
23289;DHT22;11813;50.834;4.280;2022-08-02T01:32:57;21.40;99.90
23289;DHT22;11813;50.834;4.280;2022-08-02T01:35:32;21.30;99.90
23289;DHT22;11813;50.834;4.280;2022-08-02T01:38:13;21.20;99.90
23289;DHT22;11813;50.834;4.280;2022-08-02T01:40:43;21.20;99.90
23289;DHT22;11813;50.834;4.280;2022-08-02T01:43:09;21.30;99.90
23289;DHT22;11813;50.834;4.280;2022-08-02T01:45:38;21.20;99.90
23289;DHT22;11813;50.834;4.280;2022-08-02T01:48:05;21.10;99.90
23289;DHT22;11813;50.834;4.280;2022-08-02T01:50:34;21.10;99.90
23289;DHT22;11813;50.834;4.280;2022-08-02T01:53:05;21.10;99.90
23289;DHT22;11813;50.834;4.280;2022-08-02T01:55:36;21.00;99.90
23289;DHT22;11813;50.834;4.280;2022-08-02T01:58:05;21.00;99.90
23289;DHT22;11813;50.834;4.280;2022-08-02T02:00:35;21.00;99.90
23289;DHT22;11813;50.834;4.280;2022-08-02T02:03:05;21.00;99.90
23289;DHT22;11813;50.834;4.280;2022-08-02T02:05:34;21.00;99.90
23289;DHT22;11813;50.834;4.280;2022-08-02T02:08:02;21.00;99.90
23289;DHT22;11813;50.834;4.280;2022-08-02T02:10:30;20.90;99.90
23289;DHT22;11813;50.834;4.280;2022-08-02T02:13:00;20.90;99.90
23289;DHT22;11813;50.834;4.280;2022-08-02T02:15:27;20.80;99.90
23289;DHT22;11813;50.834;4.280;2022-08-02T02:17:55;20.80;99.90
23289;DHT22;11813;50.834;4.280;2022-08-02T02:20:22;20.80;99.90
23289;DHT22;11813;50.834;4.280;2022-08-02T02:22:48;20.80;99.90
23289;DHT22;11813;50.834;4.280;2022-08-02T02:25:16;20.80;99.90
23289;DHT22;11813;50.834;4.280;2022-08-02T02:28:09;20.70;99.90
23289;DHT22;11813;50.834;4.280;2022-08-02T02:30:33;20.60;99.90
23289;DHT22;11813;50.834;4.280;2022-08-02T02:33:02;20.60;99.90
23289;DHT22;11813;50.834;4.280;2022-08-02T02:35:33;20.50;99.90
23289;DHT22;11813;50.834;4.280;2022-08-02T02:38:03;20.50;99.90
23289;DHT22;11813;50.834;4.280;2022-08-02T02:40:30;20.50;99.90
23289;DHT22;11813;50.834;4.280;2022-08-02T02:42:58;20.30;99.90
23289;DHT22;11813;50.834;4.280;2022-08-02T02:45:25;20.30;99.90
23289;DHT22;11813;50.834;4.280;2022-08-02T02:47:54;20.30;99.90
23289;DHT22;11813;50.834;4.280;2022-08-02T02:50:21;20.30;99.90
23289;DHT22;11813;50.834;4.280;2022-08-02T02:52:47;20.20;99.90
23289;DHT22;11813;50.834;4.280;2022-08-02T02:55:14;20.30;99.90
23289;DHT22;11813;50.834;4.280;2022-08-02T02:57:41;20.30;99.90
23289;DHT22;11813;50.834;4.280;2022-08-02T03:00:09;20.30;99.90
23289;DHT22;11813;50.834;4.280;2022-08-02T03:02:42;20.30;99.90
23289;DHT22;11813;50.834;4.280;2022-08-02T03:05:09;20.30;99.90
23289;DHT22;11813;50.834;4.280;2022-08-02T03:07:36;20.30;99.90
23289;DHT22;11813;50.834;4.280;2022-08-02T03:10:03;20.30;99.90
23289;DHT22;11813;50.834;4.280;2022-08-02T03:12:29;20.30;99.90
23289;DHT22;11813;50.834;4.280;2022-08-02T03:14:57;20.20;99.90
23289;DHT22;11813;50.834;4.280;2022-08-02T03:17:23;20.20;99.90
23289;DHT22;11813;50.834;4.280;2022-08-02T03:19:48;20.20;99.90
23289;DHT22;11813;50.834;4.280;2022-08-02T03:22:14;20.20;99.90
23289;DHT22;11813;50.834;4.280;2022-08-02T03:24:40;20.20;99.90
23289;DHT22;11813;50.834;4.280;2022-08-02T03:27:05;20.30;99.90
23289;DHT22;11813;50.834;4.280;2022-08-02T03:29:31;20.30;99.90
23289;DHT22;11813;50.834;4.280;2022-08-02T03:31:57;20.20;99.90
23289;DHT22;11813;50.834;4.280;2022-08-02T03:34:23;20.20;99.90
23289;DHT22;11813;50.834;4.280;2022-08-02T03:36:53;20.10;99.90
23289;DHT22;11813;50.834;4.280;2022-08-02T03:39:19;20.10;99.90
23289;DHT22;11813;50.834;4.280;2022-08-02T03:41:47;20.10;99.90
23289;DHT22;11813;50.834;4.280;2022-08-02T03:44:14;20.10;99.90
23289;DHT22;11813;50.834;4.280;2022-08-02T03:46:40;20.00;99.90
23289;DHT22;11813;50.834;4.280;2022-08-02T03:49:07;20.00;99.90
23289;DHT22;11813;50.834;4.280;2022-08-02T03:51:36;20.00;99.90
23289;DHT22;11813;50.834;4.280;2022-08-02T03:54:02;20.00;99.90
23289;DHT22;11813;50.834;4.280;2022-08-02T03:56:28;19.90;99.90
23289;DHT22;11813;50.834;4.280;2022-08-02T03:59:11;19.90;99.90
23289;DHT22;11813;50.834;4.280;2022-08-02T04:01:37;19.90;99.90
23289;DHT22;11813;50.834;4.280;2022-08-02T04:04:04;19.90;99.90
23289;DHT22;11813;50.834;4.280;2022-08-02T04:06:30;19.90;99.90
23289;DHT22;11813;50.834;4.280;2022-08-02T04:08:55;19.80;99.90
23289;DHT22;11813;50.834;4.280;2022-08-02T04:11:21;19.80;99.90
23289;DHT22;11813;50.834;4.280;2022-08-02T04:13:58;19.80;99.90
23289;DHT22;11813;50.834;4.280;2022-08-02T04:16:44;19.80;99.90
23289;DHT22;11813;50.834;4.280;2022-08-02T04:19:14;19.80;99.90
23289;DHT22;11813;50.834;4.280;2022-08-02T04:21:43;19.80;99.90
23289;DHT22;11813;50.834;4.280;2022-08-02T04:24:10;19.60;99.90
23289;DHT22;11813;50.834;4.280;2022-08-02T04:26:37;19.50;99.90
23289;DHT22;11813;50.834;4.280;2022-08-02T04:29:04;19.50;99.90
23289;DHT22;11813;50.834;4.280;2022-08-02T04:31:31;19.40;99.90
23289;DHT22;11813;50.834;4.280;2022-08-02T04:33:56;19.50;99.90
23289;DHT22;11813;50.834;4.280;2022-08-02T04:36:23;19.50;99.90
23289;DHT22;11813;50.834;4.280;2022-08-02T04:38:49;19.60;99.90
23289;DHT22;11813;50.834;4.280;2022-08-02T04:41:15;19.60;99.90
23289;DHT22;11813;50.834;4.280;2022-08-02T04:43:41;19.50;99.90
23289;DHT22;11813;50.834;4.280;2022-08-02T04:46:06;19.50;99.90
23289;DHT22;11813;50.834;4.280;2022-08-02T04:48:32;19.40;99.90
23289;DHT22;11813;50.834;4.280;2022-08-02T04:50:58;19.40;99.90
23289;DHT22;11813;50.834;4.280;2022-08-02T04:53:24;19.40;99.90
23289;DHT22;11813;50.834;4.280;2022-08-02T04:55:50;19.50;99.90
23289;DHT22;11813;50.834;4.280;2022-08-02T04:58:15;19.50;99.90
23289;DHT22;11813;50.834;4.280;2022-08-02T05:00:41;19.50;99.90
23289;DHT22;11813;50.834;4.280;2022-08-02T05:03:06;19.50;99.90
23289;DHT22;11813;50.834;4.280;2022-08-02T05:05:32;19.60;99.90
23289;DHT22;11813;50.834;4.280;2022-08-02T05:07:58;19.60;99.90
23289;DHT22;11813;50.834;4.280;2022-08-02T05:10:24;19.50;99.90
23289;DHT22;11813;50.834;4.280;2022-08-02T05:12:49;19.50;99.90
23289;DHT22;11813;50.834;4.280;2022-08-02T05:15:15;19.50;99.90
23289;DHT22;11813;50.834;4.280;2022-08-02T05:17:43;19.40;99.90
23289;DHT22;11813;50.834;4.280;2022-08-02T05:20:10;19.40;99.90
23289;DHT22;11813;50.834;4.280;2022-08-02T05:22:37;19.40;99.90
23289;DHT22;11813;50.834;4.280;2022-08-02T05:25:03;19.40;99.90
23289;DHT22;11813;50.834;4.280;2022-08-02T05:27:29;19.40;99.90
23289;DHT22;11813;50.834;4.280;2022-08-02T05:29:54;19.30;99.90
23289;DHT22;11813;50.834;4.280;2022-08-02T05:32:22;19.40;99.90
23289;DHT22;11813;50.834;4.280;2022-08-02T05:34:48;19.30;99.90
23289;DHT22;11813;50.834;4.280;2022-08-02T05:37:13;19.20;99.90
23289;DHT22;11813;50.834;4.280;2022-08-02T05:39:39;19.20;99.90
23289;DHT22;11813;50.834;4.280;2022-08-02T05:42:04;19.20;99.90
23289;DHT22;11813;50.834;4.280;2022-08-02T05:44:30;19.10;99.90
23289;DHT22;11813;50.834;4.280;2022-08-02T05:46:55;19.20;99.90
23289;DHT22;11813;50.834;4.280;2022-08-02T05:49:21;19.20;99.90
23289;DHT22;11813;50.834;4.280;2022-08-02T05:52:02;19.30;99.90
23289;DHT22;11813;50.834;4.280;2022-08-02T05:59:49;19.40;99.90
23289;DHT22;11813;50.834;4.280;2022-08-02T06:02:28;19.40;99.90
23289;DHT22;11813;50.834;4.280;2022-08-02T06:05:17;19.50;99.90
23289;DHT22;11813;50.834;4.280;2022-08-02T06:07:44;19.50;99.90
23289;DHT22;11813;50.834;4.280;2022-08-02T06:10:12;19.60;99.90
23289;DHT22;11813;50.834;4.280;2022-08-02T06:13:06;19.50;99.90
23289;DHT22;11813;50.834;4.280;2022-08-02T06:15:32;19.60;99.90
23289;DHT22;11813;50.834;4.280;2022-08-02T06:17:58;19.70;99.90
23289;DHT22;11813;50.834;4.280;2022-08-02T06:20:26;19.80;99.90
23289;DHT22;11813;50.834;4.280;2022-08-02T06:22:52;19.90;99.90
23289;DHT22;11813;50.834;4.280;2022-08-02T06:25:20;19.90;99.90
23289;DHT22;11813;50.834;4.280;2022-08-02T06:27:48;20.00;99.90
23289;DHT22;11813;50.834;4.280;2022-08-02T06:30:14;20.10;99.90
23289;DHT22;11813;50.834;4.280;2022-08-02T06:32:40;20.20;99.90
23289;DHT22;11813;50.834;4.280;2022-08-02T06:35:08;20.40;99.90
23289;DHT22;11813;50.834;4.280;2022-08-02T06:37:43;20.50;99.90
23289;DHT22;11813;50.834;4.280;2022-08-02T06:40:25;20.60;99.90
23289;DHT22;11813;50.834;4.280;2022-08-02T06:45:56;20.80;99.90
23289;DHT22;11813;50.834;4.280;2022-08-02T06:48:22;20.80;99.90
23289;DHT22;11813;50.834;4.280;2022-08-02T06:50:48;20.90;99.90
23289;DHT22;11813;50.834;4.280;2022-08-02T06:53:14;20.90;99.90
23289;DHT22;11813;50.834;4.280;2022-08-02T06:55:39;21.00;99.90
23289;DHT22;11813;50.834;4.280;2022-08-02T06:58:05;21.10;99.90
23289;DHT22;11813;50.834;4.280;2022-08-02T07:00:30;21.30;99.90
23289;DHT22;11813;50.834;4.280;2022-08-02T07:02:56;21.20;99.90
23289;DHT22;11813;50.834;4.280;2022-08-02T07:05:22;21.20;99.90
23289;DHT22;11813;50.834;4.280;2022-08-02T07:07:48;21.20;99.90
23289;DHT22;11813;50.834;4.280;2022-08-02T07:10:14;21.30;99.90
23289;DHT22;11813;50.834;4.280;2022-08-02T07:12:40;21.50;99.90
23289;DHT22;11813;50.834;4.280;2022-08-02T07:15:06;21.70;99.90
23289;DHT22;11813;50.834;4.280;2022-08-02T07:17:34;21.70;99.90
23289;DHT22;11813;50.834;4.280;2022-08-02T07:20:00;21.70;99.90
23289;DHT22;11813;50.834;4.280;2022-08-02T07:22:26;21.70;99.90
23289;DHT22;11813;50.834;4.280;2022-08-02T07:24:54;21.80;99.90
23289;DHT22;11813;50.834;4.280;2022-08-02T07:27:20;21.80;99.90
23289;DHT22;11813;50.834;4.280;2022-08-02T07:29:46;21.90;99.90
23289;DHT22;11813;50.834;4.280;2022-08-02T07:32:11;21.90;99.90
23289;DHT22;11813;50.834;4.280;2022-08-02T07:34:37;22.00;99.90
23289;DHT22;11813;50.834;4.280;2022-08-02T07:37:03;22.00;99.90
23289;DHT22;11813;50.834;4.280;2022-08-02T07:39:28;22.20;99.90
23289;DHT22;11813;50.834;4.280;2022-08-02T07:41:54;22.20;99.90
23289;DHT22;11813;50.834;4.280;2022-08-02T07:44:20;22.20;99.90
23289;DHT22;11813;50.834;4.280;2022-08-02T07:46:46;22.30;99.90
23289;DHT22;11813;50.834;4.280;2022-08-02T07:49:12;22.30;99.90
23289;DHT22;11813;50.834;4.280;2022-08-02T07:51:46;22.30;99.90
23289;DHT22;11813;50.834;4.280;2022-08-02T07:54:11;22.40;99.90
23289;DHT22;11813;50.834;4.280;2022-08-02T07:56:37;22.50;99.90
23289;DHT22;11813;50.834;4.280;2022-08-02T07:59:03;22.60;99.90
23289;DHT22;11813;50.834;4.280;2022-08-02T08:01:29;22.70;99.90
23289;DHT22;11813;50.834;4.280;2022-08-02T08:03:54;22.80;99.90
23289;DHT22;11813;50.834;4.280;2022-08-02T08:06:20;22.90;99.90
23289;DHT22;11813;50.834;4.280;2022-08-02T08:08:46;23.10;99.90
23289;DHT22;11813;50.834;4.280;2022-08-02T08:11:12;23.10;99.90
23289;DHT22;11813;50.834;4.280;2022-08-02T08:13:37;23.10;99.90
23289;DHT22;11813;50.834;4.280;2022-08-02T08:16:03;23.10;99.90
23289;DHT22;11813;50.834;4.280;2022-08-02T08:18:29;23.20;99.90
23289;DHT22;11813;50.834;4.280;2022-08-02T08:20:55;23.30;99.90
23289;DHT22;11813;50.834;4.280;2022-08-02T08:23:21;23.30;99.90
23289;DHT22;11813;50.834;4.280;2022-08-02T08:25:46;23.30;99.90
23289;DHT22;11813;50.834;4.280;2022-08-02T08:28:12;23.30;99.90
23289;DHT22;11813;50.834;4.280;2022-08-02T08:30:39;23.20;99.90
23289;DHT22;11813;50.834;4.280;2022-08-02T08:33:05;23.30;99.90
23289;DHT22;11813;50.834;4.280;2022-08-02T08:35:31;23.50;99.90
23289;DHT22;11813;50.834;4.280;2022-08-02T08:37:56;23.60;99.90
23289;DHT22;11813;50.834;4.280;2022-08-02T08:40:23;23.60;99.90
23289;DHT22;11813;50.834;4.280;2022-08-02T08:42:49;23.80;99.90
23289;DHT22;11813;50.834;4.280;2022-08-02T08:45:15;23.70;99.90
23289;DHT22;11813;50.834;4.280;2022-08-02T08:47:42;23.60;99.90
23289;DHT22;11813;50.834;4.280;2022-08-02T08:50:18;23.60;99.90
23289;DHT22;11813;50.834;4.280;2022-08-02T08:52:54;23.70;99.90
23289;DHT22;11813;50.834;4.280;2022-08-02T08:55:22;23.90;99.90
23289;DHT22;11813;50.834;4.280;2022-08-02T08:57:50;24.00;99.90
23289;DHT22;11813;50.834;4.280;2022-08-02T09:00:17;24.40;99.90
23289;DHT22;11813;50.834;4.280;2022-08-02T09:02:43;24.60;99.90
23289;DHT22;11813;50.834;4.280;2022-08-02T09:05:14;24.50;99.90
23289;DHT22;11813;50.834;4.280;2022-08-02T09:07:40;24.70;99.90
23289;DHT22;11813;50.834;4.280;2022-08-02T09:15:39;24.70;99.90
23289;DHT22;11813;50.834;4.280;2022-08-02T09:18:06;24.90;99.90
23289;DHT22;11813;50.834;4.280;2022-08-02T09:20:53;25.10;99.90
23289;DHT22;11813;50.834;4.280;2022-08-02T09:23:19;25.10;99.90
23289;DHT22;11813;50.834;4.280;2022-08-02T09:26:02;25.30;99.90
23289;DHT22;11813;50.834;4.280;2022-08-02T09:28:29;25.40;99.90
23289;DHT22;11813;50.834;4.280;2022-08-02T09:31:10;25.40;99.90
23289;DHT22;11813;50.834;4.280;2022-08-02T09:33:37;25.40;99.90
23289;DHT22;11813;50.834;4.280;2022-08-02T09:38:37;25.60;99.90
23289;DHT22;11813;50.834;4.280;2022-08-02T09:41:04;25.70;99.90
23289;DHT22;11813;50.834;4.280;2022-08-02T09:43:40;25.90;99.90
23289;DHT22;11813;50.834;4.280;2022-08-02T09:49:04;26.20;99.90
23289;DHT22;11813;50.834;4.280;2022-08-02T09:51:35;26.00;99.90
23289;DHT22;11813;50.834;4.280;2022-08-02T09:54:07;25.70;99.90
23289;DHT22;11813;50.834;4.280;2022-08-02T09:56:45;25.80;99.90
23289;DHT22;11813;50.834;4.280;2022-08-02T09:59:12;25.90;99.90
23289;DHT22;11813;50.834;4.280;2022-08-02T10:01:39;26.10;99.90
23289;DHT22;11813;50.834;4.280;2022-08-02T10:04:06;26.10;99.90
23289;DHT22;11813;50.834;4.280;2022-08-02T10:06:33;26.20;99.90
23289;DHT22;11813;50.834;4.280;2022-08-02T10:08:58;26.50;99.90
23289;DHT22;11813;50.834;4.280;2022-08-02T10:11:26;26.60;99.90
23289;DHT22;11813;50.834;4.280;2022-08-02T10:13:53;26.70;99.90
23289;DHT22;11813;50.834;4.280;2022-08-02T10:16:21;26.90;99.90
23289;DHT22;11813;50.834;4.280;2022-08-02T10:18:52;27.10;99.90
23289;DHT22;11813;50.834;4.280;2022-08-02T10:21:43;26.80;99.90
23289;DHT22;11813;50.834;4.280;2022-08-02T10:24:11;26.70;99.90
23289;DHT22;11813;50.834;4.280;2022-08-02T10:26:40;26.60;99.90
23289;DHT22;11813;50.834;4.280;2022-08-02T10:29:08;26.80;99.90
23289;DHT22;11813;50.834;4.280;2022-08-02T10:31:40;26.90;99.90
23289;DHT22;11813;50.834;4.280;2022-08-02T10:34:10;27.00;99.90
23289;DHT22;11813;50.834;4.280;2022-08-02T10:36:38;27.10;99.90
23289;DHT22;11813;50.834;4.280;2022-08-02T10:39:05;27.40;99.90
23289;DHT22;11813;50.834;4.280;2022-08-02T10:41:50;27.30;99.90
23289;DHT22;11813;50.834;4.280;2022-08-02T10:44:30;27.20;99.90
23289;DHT22;11813;50.834;4.280;2022-08-02T10:49:54;27.00;99.90
23289;DHT22;11813;50.834;4.280;2022-08-02T10:57:23;27.60;99.90
23289;DHT22;11813;50.834;4.280;2022-08-02T10:59:51;27.80;99.90
23289;DHT22;11813;50.834;4.280;2022-08-02T11:02:40;28.00;99.90
23289;DHT22;11813;50.834;4.280;2022-08-02T11:07:40;28.00;99.90
23289;DHT22;11813;50.834;4.280;2022-08-02T11:15:28;28.70;99.90
23289;DHT22;11813;50.834;4.280;2022-08-02T11:17:56;28.80;99.90
23289;DHT22;11813;50.834;4.280;2022-08-02T11:20:24;28.80;99.90
23289;DHT22;11813;50.834;4.280;2022-08-02T11:22:52;28.90;99.90
23289;DHT22;11813;50.834;4.280;2022-08-02T11:28:10;29.20;99.90
23289;DHT22;11813;50.834;4.280;2022-08-02T11:30:37;29.40;99.90
23289;DHT22;11813;50.834;4.280;2022-08-02T11:33:03;29.30;99.90
23289;DHT22;11813;50.834;4.280;2022-08-02T11:35:37;29.30;99.90
23289;DHT22;11813;50.834;4.280;2022-08-02T11:38:19;29.50;99.90
23289;DHT22;11813;50.834;4.280;2022-08-02T11:40:46;29.40;99.90
23289;DHT22;11813;50.834;4.280;2022-08-02T11:43:20;29.50;99.90
23289;DHT22;11813;50.834;4.280;2022-08-02T11:45:48;29.60;99.90
23289;DHT22;11813;50.834;4.280;2022-08-02T11:48:14;29.60;99.90
23289;DHT22;11813;50.834;4.280;2022-08-02T11:50:39;29.80;99.90
23289;DHT22;11813;50.834;4.280;2022-08-02T11:53:15;29.90;99.90
23289;DHT22;11813;50.834;4.280;2022-08-02T11:55:40;29.90;99.90
23289;DHT22;11813;50.834;4.280;2022-08-02T11:58:06;29.90;99.90
23289;DHT22;11813;50.834;4.280;2022-08-02T12:00:34;30.00;99.90
23289;DHT22;11813;50.834;4.280;2022-08-02T12:03:00;30.10;99.90
23289;DHT22;11813;50.834;4.280;2022-08-02T12:05:26;30.10;99.90
23289;DHT22;11813;50.834;4.280;2022-08-02T12:07:52;30.20;99.90
23289;DHT22;11813;50.834;4.280;2022-08-02T12:10:20;30.30;99.90
23289;DHT22;11813;50.834;4.280;2022-08-02T12:12:57;30.10;99.90
23289;DHT22;11813;50.834;4.280;2022-08-02T12:18:02;30.10;99.90
23289;DHT22;11813;50.834;4.280;2022-08-02T12:20:48;30.20;99.90
23289;DHT22;11813;50.834;4.280;2022-08-02T12:23:13;30.20;99.90
23289;DHT22;11813;50.834;4.280;2022-08-02T12:25:39;30.10;99.90
23289;DHT22;11813;50.834;4.280;2022-08-02T12:28:19;30.10;99.90
23289;DHT22;11813;50.834;4.280;2022-08-02T12:30:52;30.20;99.90
23289;DHT22;11813;50.834;4.280;2022-08-02T12:33:19;30.60;99.90
23289;DHT22;11813;50.834;4.280;2022-08-02T12:35:45;30.40;99.90
23289;DHT22;11813;50.834;4.280;2022-08-02T12:38:11;30.50;99.90
23289;DHT22;11813;50.834;4.280;2022-08-02T12:40:36;30.60;99.90
23289;DHT22;11813;50.834;4.280;2022-08-02T12:43:04;30.60;99.90
23289;DHT22;11813;50.834;4.280;2022-08-02T12:45:32;30.80;99.90
23289;DHT22;11813;50.834;4.280;2022-08-02T12:47:59;30.90;99.90
23289;DHT22;11813;50.834;4.280;2022-08-02T12:50:31;31.20;99.90
23289;DHT22;11813;50.834;4.280;2022-08-02T12:53:16;31.60;99.90
23289;DHT22;11813;50.834;4.280;2022-08-02T12:55:54;31.60;99.90
23289;DHT22;11813;50.834;4.280;2022-08-02T12:58:21;31.90;99.90
23289;DHT22;11813;50.834;4.280;2022-08-02T13:00:58;32.10;99.90
23289;DHT22;11813;50.834;4.280;2022-08-02T13:03:24;32.10;99.90
23289;DHT22;11813;50.834;4.280;2022-08-02T13:05:50;32.10;99.90
23289;DHT22;11813;50.834;4.280;2022-08-02T13:08:16;32.10;99.90
23289;DHT22;11813;50.834;4.280;2022-08-02T13:10:42;31.80;99.90
23289;DHT22;11813;50.834;4.280;2022-08-02T13:13:08;31.70;99.90
23289;DHT22;11813;50.834;4.280;2022-08-02T13:15:34;31.90;99.90
23289;DHT22;11813;50.834;4.280;2022-08-02T13:18:00;31.90;99.90
23289;DHT22;11813;50.834;4.280;2022-08-02T13:20:26;32.10;99.90
23289;DHT22;11813;50.834;4.280;2022-08-02T13:22:53;32.30;99.90
23289;DHT22;11813;50.834;4.280;2022-08-02T13:25:18;32.20;99.90
23289;DHT22;11813;50.834;4.280;2022-08-02T13:27:50;32.00;99.90
23289;DHT22;11813;50.834;4.280;2022-08-02T13:30:16;32.00;99.90
23289;DHT22;11813;50.834;4.280;2022-08-02T13:32:43;32.20;99.90
23289;DHT22;11813;50.834;4.280;2022-08-02T13:35:09;32.50;99.90
23289;DHT22;11813;50.834;4.280;2022-08-02T13:37:36;32.40;99.90
23289;DHT22;11813;50.834;4.280;2022-08-02T13:40:02;32.70;99.90
23289;DHT22;11813;50.834;4.280;2022-08-02T13:42:27;33.50;99.90
23289;DHT22;11813;50.834;4.280;2022-08-02T13:44:53;33.70;99.90
23289;DHT22;11813;50.834;4.280;2022-08-02T13:47:18;34.30;99.90
23289;DHT22;11813;50.834;4.280;2022-08-02T13:49:44;34.70;99.90
23289;DHT22;11813;50.834;4.280;2022-08-02T13:52:10;34.40;99.90
23289;DHT22;11813;50.834;4.280;2022-08-02T13:54:35;34.30;99.90
23289;DHT22;11813;50.834;4.280;2022-08-02T13:57:01;34.30;99.90
23289;DHT22;11813;50.834;4.280;2022-08-02T13:59:27;34.40;99.90
23289;DHT22;11813;50.834;4.280;2022-08-02T14:01:53;34.40;99.90
23289;DHT22;11813;50.834;4.280;2022-08-02T14:04:20;34.30;99.90
23289;DHT22;11813;50.834;4.280;2022-08-02T14:06:46;35.10;99.90
23289;DHT22;11813;50.834;4.280;2022-08-02T14:09:12;35.20;99.90
23289;DHT22;11813;50.834;4.280;2022-08-02T14:11:37;35.50;99.90
23289;DHT22;11813;50.834;4.280;2022-08-02T14:14:03;35.50;99.90
23289;DHT22;11813;50.834;4.280;2022-08-02T14:16:29;35.80;99.90
23289;DHT22;11813;50.834;4.280;2022-08-02T14:18:54;35.90;99.90
23289;DHT22;11813;50.834;4.280;2022-08-02T14:21:21;36.00;99.90
23289;DHT22;11813;50.834;4.280;2022-08-02T14:23:47;36.00;99.90
23289;DHT22;11813;50.834;4.280;2022-08-02T14:26:12;35.90;99.90
23289;DHT22;11813;50.834;4.280;2022-08-02T14:38:25;35.40;99.90
23289;DHT22;11813;50.834;4.280;2022-08-02T14:40:50;35.10;99.90
23289;DHT22;11813;50.834;4.280;2022-08-02T14:43:16;34.60;99.90
23289;DHT22;11813;50.834;4.280;2022-08-02T14:46:00;34.90;99.90
23289;DHT22;11813;50.834;4.280;2022-08-02T14:48:27;34.90;99.90
23289;DHT22;11813;50.834;4.280;2022-08-02T14:50:53;34.80;99.90
23289;DHT22;11813;50.834;4.280;2022-08-02T14:53:19;35.00;99.90
23289;DHT22;11813;50.834;4.280;2022-08-02T14:55:44;34.90;99.90
23289;DHT22;11813;50.834;4.280;2022-08-02T14:58:10;35.20;99.90
23289;DHT22;11813;50.834;4.280;2022-08-02T15:00:36;35.40;99.90
23289;DHT22;11813;50.834;4.280;2022-08-02T15:03:01;35.10;99.90
23289;DHT22;11813;50.834;4.280;2022-08-02T15:05:27;35.30;99.90
23289;DHT22;11813;50.834;4.280;2022-08-02T15:07:52;35.50;99.90
23289;DHT22;11813;50.834;4.280;2022-08-02T15:10:18;35.60;99.90
23289;DHT22;11813;50.834;4.280;2022-08-02T15:12:44;35.80;99.90
23289;DHT22;11813;50.834;4.280;2022-08-02T15:15:09;35.70;99.90
23289;DHT22;11813;50.834;4.280;2022-08-02T15:17:35;35.60;99.90
23289;DHT22;11813;50.834;4.280;2022-08-02T15:20:00;35.60;99.90
23289;DHT22;11813;50.834;4.280;2022-08-02T15:22:26;35.40;99.90
23289;DHT22;11813;50.834;4.280;2022-08-02T15:24:52;35.50;99.90
23289;DHT22;11813;50.834;4.280;2022-08-02T15:27:17;35.40;99.90
23289;DHT22;11813;50.834;4.280;2022-08-02T15:29:44;35.30;99.90
23289;DHT22;11813;50.834;4.280;2022-08-02T15:32:10;35.60;99.90
23289;DHT22;11813;50.834;4.280;2022-08-02T15:34:36;35.70;99.80
23289;DHT22;11813;50.834;4.280;2022-08-02T15:37:02;35.40;99.90
23289;DHT22;11813;50.834;4.280;2022-08-02T15:39:27;34.80;99.90
23289;DHT22;11813;50.834;4.280;2022-08-02T15:41:53;34.50;99.90
23289;DHT22;11813;50.834;4.280;2022-08-02T15:44:19;34.40;99.90
23289;DHT22;11813;50.834;4.280;2022-08-02T15:46:44;34.50;99.90
23289;DHT22;11813;50.834;4.280;2022-08-02T15:49:10;34.80;99.90
23289;DHT22;11813;50.834;4.280;2022-08-02T15:51:35;35.20;99.90
23289;DHT22;11813;50.834;4.280;2022-08-02T15:54:01;35.20;99.90
23289;DHT22;11813;50.834;4.280;2022-08-02T15:56:27;35.10;99.90
23289;DHT22;11813;50.834;4.280;2022-08-02T17:47:10;29.20;99.90
23289;DHT22;11813;50.834;4.280;2022-08-02T17:49:36;29.30;99.90
23289;DHT22;11813;50.834;4.280;2022-08-02T17:52:02;29.50;99.90
23289;DHT22;11813;50.834;4.280;2022-08-02T17:54:27;29.50;99.90
23289;DHT22;11813;50.834;4.280;2022-08-02T17:56:53;29.70;99.90
23289;DHT22;11813;50.834;4.280;2022-08-02T17:59:24;29.90;99.90
23289;DHT22;11813;50.834;4.280;2022-08-02T18:01:53;30.00;99.90
23289;DHT22;11813;50.834;4.280;2022-08-02T18:04:20;30.10;99.90
23289;DHT22;11813;50.834;4.280;2022-08-02T18:06:48;30.30;99.90
23289;DHT22;11813;50.834;4.280;2022-08-02T18:09:14;30.40;99.90
23289;DHT22;11813;50.834;4.280;2022-08-02T18:11:40;30.50;99.90
23289;DHT22;11813;50.834;4.280;2022-08-02T18:14:06;30.40;99.90
23289;DHT22;11813;50.834;4.280;2022-08-02T18:16:31;30.40;99.90
23289;DHT22;11813;50.834;4.280;2022-08-02T18:18:59;30.30;99.90
23289;DHT22;11813;50.834;4.280;2022-08-02T18:21:25;30.20;99.90